Friday, April 29, 2016, 4:02 AM EDT

KOFP, Hanover County Municipal

Location: Ashland, VA, United States Lat: 37.7
Local Time: 4:02 AM EDT ( 8:02 GMT) Lon: -77.433
Time Zone: US/Eastern Elev: 203 ft

Show me the last for .
Show Decoded

2016-04-29 03:35 METAR KOFP 290735Z AUTO 06004KT 4SM BR OVC003 10/09 A2997 RMK AO2 T01000089 =
2016-04-29 03:12 METAR KOFP 290712Z AUTO 04004KT 2 1/2SM BR OVC003 10/09 A2998 RMK AO2 T01000089
                 =
2016-04-29 02:54 METAR KOFP 290654Z AUTO 00000KT 4SM BR OVC004 10/09 A2999 RMK AO2 SLP153
                 T01000089 =
2016-04-29 01:54 METAR KOFP 290554Z AUTO 04003KT 8SM BKN004 OVC014 11/09 A2999 RMK AO2 SLP153
                 60047 T01060089 10133 20106 58002 =
2016-04-29 00:54 METAR KOFP 290454Z AUTO VRB04KT 5SM BR BKN002 OVC006 11/09 A3000 RMK AO2 SLP158
                 T01060094 401500106 =
2016-04-29 00:49 METAR KOFP 290449Z AUTO VRB04KT 6SM BR OVC004 11/09 A3000 RMK AO2 CIG 002V008 =
2016-04-28 23:54 METAR KOFP 290354Z AUTO VRB03KT 10SM OVC006 11/09 A2999 RMK AO2 RAE0258 CIG
                 004V009 SLP155 P0000 T01110094 =
2016-04-28 22:54 METAR KOFP 290254Z AUTO 00000KT 9SM -RA BKN006 OVC090 12/11 A2999 RMK AO2 LTG
                 DSNT SE AND S RAB16 SLP155 P0009 60047 T01170106 50010 =
2016-04-28 22:25 METAR KOFP 290225Z AUTO 08005KT 4SM RA BR OVC007 12/11 A3000 RMK AO2 LTG DSNT
                 E-SW RAB16 CIG 004V011 P0005 T01220106 =
2016-04-28 22:18 METAR KOFP 290218Z AUTO 02003KT 9SM VCTS -RA BKN005 OVC010 12/11 A3002 RMK AO2
                 LTG DSNT E-SW RAB16 CIG 004V008 P0000 T01220106 =
2016-04-28 22:03 METAR KOFP 290203Z AUTO 00000KT 10SM VCTS OVC004 12/11 A2999 RMK AO2 LTG DSNT
                 E-SW T01220111 =
2016-04-28 21:54 METAR KOFP 290154Z AUTO VRB03KT 9SM OVC004 12/11 A3000 RMK AO2 LTG DSNT E-SW
                 RAB0055E28 TSE19 SLP157 P0038 T01220111 =
2016-04-28 21:39 METAR KOFP 290139Z AUTO 09005KT 9SM VCTS BKN004 OVC012 12/11 A2997 RMK AO2 LTG
                 DSNT E-SW RAB0055E28 TSE19 P0038 T01220106 =
2016-04-28 21:27 METAR KOFP 290127Z AUTO 00000KT 7SM VCTS -RA BKN005 BKN008 OVC012 12/11 A2998
                 RMK AO2 LTG DSNT ALQDS RAB0055 TSE19 P0038 T01220111 =
2016-04-28 21:19 METAR KOFP 290119Z AUTO VRB06KT 2SM VCTS -RA BR BKN005 OVC013 12/11 A2996 RMK
                 AO2 LTG DSNT NE AND E RAB0055 TSE19 P0038 T01220106 =
2016-04-28 21:14 METAR KOFP 290114Z AUTO 04005KT 1 1/4SM +TSRA BR BKN005 OVC011 12/11 A2997 RMK
                 AO2 LTG DSNT E RAB0055 P0038 T01220111 =
2016-04-28 21:05 METAR KOFP 290105Z AUTO 06006KT 1 3/4SM +TSRA BR OVC005 12/11 A2998 RMK AO2 LTG
                 DSNT NW-E RAB0055 P0016 T01220111 =
2016-04-28 21:01 METAR KOFP 290101Z AUTO 33004KT 3SM +TSRA BR OVC005 12/11 A2999 RMK AO2 LTG DSNT
                 NW-E RAB0055 CIG 003V009 PRESRR P0008 T01220111 =
2016-04-28 20:54 METAR KOFP 290054Z AUTO VRB04KT 6SM TS BR BKN004 OVC010 13/11 A2997 RMK AO2 LTG
                 DSNT ALQDS RAB28E44 TSB29 CIG 003V008 SLP146 P0000 T01280111 =
2016-04-28 20:29 METAR KOFP 290029Z AUTO VRB03KT 7SM -TSRA OVC004 13/11 A2998 RMK AO2 LTG DSNT
                 NW-NE RAB28 TSB29 P0000 T01280111 =
2016-04-28 19:54 METAR KOFP 282354Z AUTO VRB04KT 6SM BR OVC003 13/12 A2996 RMK AO2 LTG DSNT W AND
                 NW SLP144 T01330117 10150 20133 53006 =
2016-04-28 19:04 METAR KOFP 282304Z AUTO 04005KT 5SM BR OVC004 13/12 A2992 RMK AO2 T01330117 =
2016-04-28 18:54 METAR KOFP 282254Z AUTO 07004KT 4SM BR OVC005 13/12 A2992 RMK AO2 SLP130
                 T01330117 =
2016-04-28 18:39 METAR KOFP 282239Z AUTO 07005KT 3SM BR OVC005 14/12 A2992 RMK AO2 CIG 003V008
                 T01390122 =
2016-04-28 18:15 METAR KOFP 282215Z AUTO 07004KT 2SM BR OVC005 14/12 A2993 RMK AO2 CIG 003V008
                 T01390122 =
2016-04-28 17:54 METAR KOFP 282154Z AUTO VRB04KT 1 3/4SM BR OVC005 14/13 A2994 RMK AO2 CIG
                 003V007 SLP138 T01440128 =
2016-04-28 17:51 METAR KOFP 282151Z AUTO VRB04KT 2SM BR OVC005 14/13 A2994 RMK AO2 CIG 003V008 =
2016-04-28 17:31 METAR KOFP 282131Z AUTO VRB05KT 1 1/2SM BR OVC005 14/13 A2993 RMK AO2 CIG
                 004V009 T01440128 =
2016-04-28 17:05 METAR KOFP 282105Z AUTO VRB03KT 1 3/4SM BR OVC004 14/13 A2995 RMK AO2 T01440128
                 =
2016-04-28 16:54 METAR KOFP 282054Z AUTO VRB03KT 2SM BR OVC004 14/13 A2994 RMK AO2 SLP139
                 T01440128 55004 =
2016-04-28 16:16 METAR KOFP 282016Z AUTO 08004KT 2SM BR OVC004 14/13 A2993 RMK AO2 T01440128 =
2016-04-28 15:54 METAR KOFP 281954Z AUTO VRB03KT 3SM BR OVC004 14/13 A2993 RMK AO2 SLP135
                 T01440128 =
2016-04-28 14:54 METAR KOFP 281854Z AUTO 09005KT 4SM BR OVC004 14/13 A2995 RMK AO2 SLP140
                 T01440128 =
2016-04-28 13:54 METAR KOFP 281754Z AUTO 07004KT 3SM BR OVC005 14/12 A2996 RMK AO2 SLP143 60001
                 T01390122 10144 20128 58006 =
2016-04-28 13:40 METAR KOFP 281740Z AUTO VRB03KT 3SM BR OVC005 14/12 A2997 RMK AO2 T01440122 =
2016-04-28 13:05 METAR KOFP 281705Z AUTO VRB03KT 2SM BR OVC005 14/12 A2998 RMK AO2 T01390122 =
2016-04-28 12:54 METAR KOFP 281654Z AUTO 00000KT 4SM BR OVC005 14/12 A2998 RMK AO2 SLP150
                 T01390122 =
2016-04-28 12:01 METAR KOFP 281601Z AUTO VRB04KT 8SM OVC005 13/12 A2998 RMK AO2 T01330117 =
2016-04-28 11:54 METAR KOFP 281554Z AUTO VRB05KT 8SM OVC004 13/12 A2998 RMK AO2 SLP150 T01330117
                 =
2016-04-28 11:29 METAR KOFP 281529Z AUTO 07005KT 5SM BR OVC004 13/12 A2998 RMK AO2 T01330117 =
2016-04-28 10:54 METAR KOFP 281454Z AUTO 5SM BR OVC005 13/12 A2997 RMK AO2 RAE14 SLP149 P0000
                 60001 T01330117 58002 =
2016-04-28 10:18 METAR KOFP 281418Z AUTO 08005KT 4SM BR OVC005 13/12 A2998 RMK AO2 RAE14 P0000
                 T01330117 =
2016-04-28 09:54 METAR KOFP 281354Z AUTO 07004KT 2SM -RA BR OVC006 13/12 A2999 RMK AO2 RAB1257
                 CIG 004V008 SLP154 P0001 T01280117 =
2016-04-28 09:52 METAR KOFP 281352Z AUTO 07004KT 2SM -RA BR OVC006 13/12 A2999 RMK AO2 RAB1257
                 CIG 004V008 P0001 =
2016-04-28 09:29 METAR KOFP 281329Z AUTO 07004KT 3SM -RA BR OVC005 13/11 A2999 RMK AO2 RAB1257
                 CIG 004V010 P0001 T01330111 =
2016-04-28 09:19 METAR KOFP 281319Z AUTO 06003KT 3SM -RA BR BKN004 OVC009 13/12 A2999 RMK AO2
                 RAB1257 CIG 004V008 P0000 T01330117 =
2016-04-28 09:04 METAR KOFP 281304Z AUTO 00000KT 4SM -RA BR OVC005 13/12 A2998 RMK AO2 RAB1257
                 P0000 T01330117 =
2016-04-28 08:54 METAR KOFP 281254Z AUTO VRB04KT 8SM OVC004 13/12 A2998 RMK AO2 RAB31E50 CIG
                 004V008 SLP152 P0000 T01330117 =
2016-04-28 08:39 METAR KOFP 281239Z AUTO VRB03KT 8SM -RA OVC004 13/12 A2998 RMK AO2 RAB31 P0000
                 T01330117 =
2016-04-28 07:54 METAR KOFP 281154Z AUTO 08003KT 10SM OVC005 13/11 A2996 RMK AO2 RAE05B35E48
                 SLP144 P0000 60012 70012 T01280111 10133 20128 53010 =
2016-04-28 07:40 METAR KOFP 281140Z AUTO VRB03KT 8SM -RA OVC005 13/12 A2996 RMK AO2 RAE05B35
                 P0000 T01280117 =
2016-04-28 06:54 METAR KOFP 281054Z AUTO 03003KT 5SM -RA BR OVC004 13/11 A2994 RMK AO2 CIG
                 003V008 SLP139 P0005 T01280111 =
2016-04-28 06:40 METAR KOFP 281040Z AUTO VRB03KT 6SM -RA BR OVC004 13/12 A2994 RMK AO2 P0004
                 T01280117 =
2016-04-28 06:21 METAR KOFP 281021Z AUTO 00000KT 6SM -RA BR BKN005 OVC013 13/11 A2993 RMK AO2 CIG
                 003V008 P0004 T01280111 =
2016-04-28 05:54 METAR KOFP 280954Z AUTO 08003KT 4SM -RA BR OVC003 13/12 A2993 RMK AO2 RAB09
                 SLP134 P0007 T01280117 =
2016-04-28 05:45 METAR KOFP 280945Z AUTO 05003KT 3SM -RA BR OVC003 13/11 A2993 RMK AO2 RAB09
                 P0007 T01280111 =
2016-04-28 05:23 METAR KOFP 280923Z AUTO 00000KT 2SM -RA BR OVC002 13/12 A2993 RMK AO2 RAB09
                 P0001 T01280117 =
2016-04-28 04:54 METAR KOFP 280854Z AUTO 00000KT 1SM BR OVC002 13/12 A2993 RMK AO2 SLP134
                 T01280117 53002 =
2016-04-28 04:45 METAR KOFP 280845Z AUTO 00000KT 3/4SM BR OVC002 13/12 A2993 RMK AO2 T01280117 =
2016-04-28 04:13 METAR KOFP 280813Z AUTO 00000KT 1 1/4SM BR OVC003 13/11 A2992 RMK AO2 T01280111
                 =
2016-04-28 04:03 METAR KOFP 280803Z AUTO 00000KT 1 1/2SM BR OVC003 13/12 A2993 RMK AO2 T01280117
                 =

Support USWX by starting your Amazon purchase here.